Time;durP1;ratioP1;P1;durP2;ratioP2;P2;SDS_P1;SDS_P2;PMS_P1;PMS_P2;Temp;Humidity;BMP_temperature;BMP_pressure;BME280_temperature;BME280_humidity;BME280_pressure;Samples;Min_cycle;Max_cycle;Signal;HPM_P1;HPM_P2
2022/05/03 00:01:08;;;;;;;3.53;3.13;;;8.80;99.90;;;;;;5113784;28;20399;-62
2022/05/03 00:03:50;;;;;;;3.53;3.23;;;8.60;99.90;;;;;;5114245;28;20420;-62
2022/05/03 00:06:42;;;;;;;3.73;3.37;;;8.60;99.90;;;;;;5114071;28;20501;-67
2022/05/03 00:09:08;;;;;;;7.27;3.17;;;8.60;99.90;;;;;;5113292;28;20385;-68
2022/05/03 00:11:39;;;;;;;3.60;3.30;;;8.60;99.90;;;;;;5114120;28;20401;-68
2022/05/03 00:14:16;;;;;;;3.77;3.10;;;8.60;99.90;;;;;;5113931;28;20482;-64
2022/05/03 00:16:44;;;;;;;7.63;3.87;;;8.60;99.90;;;;;;5113666;28;20401;-65
2022/05/03 00:19:10;;;;;;;4.33;3.80;;;8.50;99.90;;;;;;5113151;28;20391;-68
2022/05/03 00:21:37;;;;;;;3.67;3.40;;;8.50;99.90;;;;;;5114119;28;20417;-63
2022/05/03 00:24:04;;;;;;;3.63;3.33;;;8.50;99.90;;;;;;5113865;28;20401;-63
2022/05/03 00:26:30;;;;;;;4.37;3.00;;;8.50;99.90;;;;;;5113764;28;20444;-63
2022/05/03 00:28:57;;;;;;;3.93;3.27;;;8.40;99.90;;;;;;5113182;28;20435;-68
2022/05/03 00:31:25;;;;;;;4.43;3.57;;;8.40;99.90;;;;;;5113940;28;20378;-68
2022/05/03 00:33:52;;;;;;;4.87;2.60;;;8.30;99.90;;;;;;5113357;28;20475;-67
2022/05/03 00:36:18;;;;;;;22.73;4.30;;;8.30;99.90;;;;;;5113816;28;20500;-67
2022/05/03 00:38:44;;;;;;;4.50;3.70;;;8.30;99.90;;;;;;5113004;28;20484;-62
2022/05/03 00:41:12;;;;;;;3.70;3.20;;;8.30;99.90;;;;;;5113851;28;20165;-63
2022/05/03 00:43:57;;;;;;;4.10;3.50;;;8.20;99.90;;;;;;5113687;28;20190;-68
2022/05/03 00:46:28;;;;;;;4.30;3.87;;;8.20;99.90;;;;;;5113498;28;20436;-68
2022/05/03 00:49:21;;;;;;;8.57;3.80;;;8.20;99.90;;;;;;5112949;28;20398;-62
2022/05/03 00:52:16;;;;;;;3.63;3.33;;;8.20;99.90;;;;;;5113600;28;20430;-62
2022/05/03 00:54:47;;;;;;;4.00;3.70;;;8.10;99.90;;;;;;5113260;28;20400;-62
2022/05/03 00:57:35;;;;;;;3.90;3.60;;;8.10;99.90;;;;;;5113694;28;20459;-62
2022/05/03 01:00:14;;;;;;;3.70;3.40;;;8.10;99.90;;;;;;5112607;28;20413;-63
2022/05/03 01:02:45;;;;;;;3.73;3.43;;;8.20;99.90;;;;;;5113476;28;20420;-67
2022/05/03 01:05:15;;;;;;;4.33;4.03;;;8.10;99.90;;;;;;5113558;28;20446;-68
2022/05/03 01:07:54;;;;;;;3.60;3.20;;;8.10;99.90;;;;;;5113488;28;20479;-62
2022/05/03 01:10:35;;;;;;;5.70;3.90;;;8.10;99.90;;;;;;5112041;28;20391;-68
2022/05/03 01:13:15;;;;;;;5.03;4.53;;;8.10;99.90;;;;;;5114325;28;20487;-67
2022/05/03 01:15:48;;;;;;;4.77;4.37;;;8.10;99.90;;;;;;5117433;28;20395;-68
2022/05/03 01:18:27;;;;;;;4.10;3.80;;;8.10;99.90;;;;;;5117423;28;20880;-62
2022/05/03 01:21:26;;;;;;;5.10;3.43;;;8.10;99.90;;;;;;5116657;28;20392;-68
2022/05/03 01:24:19;;;;;;;4.87;3.80;;;8.10;99.90;;;;;;5117330;28;20410;-63
2022/05/03 01:27:23;;;;;;;5.83;4.40;;;8.10;99.90;;;;;;5116831;28;20447;-65
2022/05/03 01:29:50;;;;;;;5.87;4.27;;;8.10;99.90;;;;;;5116606;28;20399;-62
2022/05/03 01:32:19;;;;;;;5.40;4.90;;;8.10;99.90;;;;;;5099067;28;20428;-63
2022/05/03 01:34:47;;;;;;;5.10;4.50;;;8.10;99.90;;;;;;5117094;28;20405;-68
2022/05/03 01:37:36;;;;;;;4.70;4.30;;;8.10;99.90;;;;;;5117096;28;20872;-68
2022/05/03 01:40:11;;;;;;;5.40;3.70;;;8.10;99.90;;;;;;5116328;28;20493;-64
2022/05/03 01:43:00;;;;;;;4.80;4.30;;;8.00;99.90;;;;;;5116911;28;20417;-63
2022/05/03 01:45:27;;;;;;;4.90;4.30;;;8.10;99.90;;;;;;5098665;28;20916;-62
2022/05/03 01:48:17;;;;;;;3.93;3.63;;;8.00;99.90;;;;;;5116373;28;20950;-63
2022/05/03 01:50:58;;;;;;;7.47;4.67;;;7.90;99.90;;;;;;5115842;28;20393;-68
2022/05/03 01:53:43;;;;;;;3.97;3.63;;;8.00;99.90;;;;;;5116774;28;20984;-62
2022/05/03 01:56:33;;;;;;;6.90;5.30;;;8.00;99.90;;;;;;5116671;28;20415;-62
2022/05/03 01:59:06;;;;;;;4.93;3.70;;;8.00;99.90;;;;;;5115603;28;20431;-67
2022/05/03 02:01:40;;;;;;;4.80;4.40;;;8.10;99.90;;;;;;5098475;28;20448;-67
2022/05/03 02:04:29;;;;;;;4.93;4.03;;;8.00;99.90;;;;;;5116476;28;20489;-67
2022/05/03 02:07:12;;;;;;;6.73;4.90;;;8.10;99.90;;;;;;5097913;28;20452;-63
2022/05/03 02:10:06;;;;;;;7.70;4.60;;;8.20;99.90;;;;;;5115692;28;20382;-62
2022/05/03 02:12:33;;;;;;;5.00;4.37;;;8.20;99.90;;;;;;5116393;28;20434;-67
2022/05/03 02:15:07;;;;;;;5.37;4.60;;;8.20;99.90;;;;;;5116194;28;20399;-64
2022/05/03 02:17:53;;;;;;;6.07;5.03;;;8.20;99.90;;;;;;5116312;28;20379;-68
2022/05/03 02:20:36;;;;;;;5.83;5.20;;;8.20;99.90;;;;;;5115301;28;20401;-64
2022/05/03 02:23:20;;;;;;;5.20;4.73;;;8.30;99.90;;;;;;5115791;28;20987;-68
2022/05/03 02:26:23;;;;;;;6.93;5.17;;;8.30;99.90;;;;;;5114904;28;20399;-62
2022/05/03 02:28:57;;;;;;;5.83;5.33;;;8.40;99.90;;;;;;5115232;28;20932;-63
2022/05/03 02:31:51;;;;;;;5.20;4.70;;;8.40;99.90;;;;;;5116115;28;20397;-68
2022/05/03 02:34:48;;;;;;;7.47;5.73;;;8.50;99.90;;;;;;5116123;28;20393;-67
2022/05/03 02:37:21;;;;;;;5.87;5.40;;;8.50;99.90;;;;;;5115416;28;20901;-62
2022/05/03 02:39:56;;;;;;;5.27;4.77;;;8.60;99.90;;;;;;5114957;28;20425;-63
2022/05/03 02:42:22;;;;;;;7.27;4.43;;;8.70;99.90;;;;;;5115739;28;20421;-62
2022/05/03 02:44:49;;;;;;;6.60;6.07;;;8.70;99.90;;;;;;5115815;28;20543;-67
2022/05/03 02:47:44;;;;;;;5.60;5.10;;;8.70;99.90;;;;;;5115527;28;20444;-68
2022/05/03 02:50:10;;;;;;;9.87;5.53;;;8.70;99.90;;;;;;5114844;28;20494;-63
2022/05/03 02:52:52;;;;;;;8.40;5.50;;;8.70;99.90;;;;;;5115457;28;20836;-67
2022/05/03 02:55:20;;;;;;;5.90;4.83;;;8.70;99.90;;;;;;5096923;28;20186;-64
2022/05/03 02:57:48;;;;;;;9.23;5.40;;;8.70;99.90;;;;;;5115289;28;20426;-67
2022/05/03 03:03:23;;;;;;;9.10;6.20;;;8.80;99.90;;;;;;5115268;28;20831;-63
2022/05/03 03:05:56;;;;;;;6.77;4.70;;;8.80;99.90;;;;;;5115293;28;20405;-67
2022/05/03 03:08:23;;;;;;;6.13;5.47;;;8.70;99.90;;;;;;5115260;28;20408;-68
2022/05/03 03:11:01;;;;;;;7.70;5.37;;;8.70;99.90;;;;;;5114496;28;20492;-62
2022/05/03 03:13:49;;;;;;;11.47;5.80;;;8.70;99.90;;;;;;5114892;28;20419;-68
2022/05/03 03:16:30;;;;;;;6.87;4.93;;;8.80;99.90;;;;;;5114895;28;20493;-68
2022/05/03 03:18:57;;;;;;;6.97;5.97;;;8.80;99.90;;;;;;5114271;28;20406;-63
2022/05/03 03:21:29;;;;;;;8.90;5.97;;;8.80;99.90;;;;;;5096684;28;20418;-64
2022/05/03 03:23:58;;;;;;;5.73;5.27;;;8.90;99.90;;;;;;5115037;28;20414;-63
2022/05/03 03:26:28;;;;;;;10.87;6.73;;;8.90;99.90;;;;;;5115050;28;20540;-62
2022/05/03 03:28:58;;;;;;;7.40;6.60;;;9.00;99.90;;;;;;5114063;28;20481;-63
2022/05/03 03:31:25;;;;;;;11.33;6.50;;;9.00;99.90;;;;;;5114378;28;20450;-65
2022/05/03 03:33:53;;;;;;;10.80;6.43;;;9.10;99.90;;;;;;5114604;28;20537;-63
2022/05/03 03:36:20;;;;;;;8.77;6.80;;;9.10;99.90;;;;;;5114449;28;20394;-68
2022/05/03 03:38:47;;;;;;;11.00;6.60;;;9.00;99.90;;;;;;5114082;28;20853;-63
2022/05/03 03:41:13;;;;;;;10.87;7.20;;;9.00;99.90;;;;;;5096431;28;20417;-68
2022/05/03 03:43:40;;;;;;;8.63;7.70;;;9.10;99.90;;;;;;5096305;28;20783;-64
2022/05/03 03:46:06;;;;;;;7.40;6.63;;;9.10;99.90;;;;;;5114579;28;20195;-67
2022/05/03 03:48:32;;;;;;;8.20;6.60;;;9.20;99.90;;;;;;5113217;28;20393;-69
2022/05/03 03:51:00;;;;;;;12.90;9.23;;;9.20;99.90;;;;;;5114548;28;20392;-63
2022/05/03 03:53:27;;;;;;;12.37;7.40;;;9.30;99.90;;;;;;5114386;28;20421;-63
2022/05/03 03:55:53;;;;;;;9.83;8.30;;;9.40;99.90;;;;;;5114360;28;20447;-63
2022/05/03 03:58:20;;;;;;;13.47;9.30;;;9.30;99.90;;;;;;5114349;28;20418;-63
2022/05/03 04:00:47;;;;;;;10.13;9.10;;;9.40;99.90;;;;;;5113815;28;20415;-63
2022/05/03 04:03:13;;;;;;;14.40;8.30;;;9.40;99.90;;;;;;5114205;28;20422;-64
2022/05/03 04:05:39;;;;;;;12.73;7.97;;;9.40;99.90;;;;;;5113788;28;20431;-63
2022/05/03 04:08:05;;;;;;;14.10;8.20;;;9.50;99.90;;;;;;5114207;28;21123;-67
2022/05/03 04:10:31;;;;;;;10.50;7.00;;;9.50;99.90;;;;;;5113329;28;20188;-63
2022/05/03 04:12:57;;;;;;;10.47;7.47;;;9.50;99.90;;;;;;5114174;28;20430;-68
2022/05/03 04:15:25;;;;;;;10.07;7.27;;;9.50;99.90;;;;;;5114214;28;20168;-68
2022/05/03 04:17:50;;;;;;;14.23;8.57;;;9.60;99.90;;;;;;5113988;28;20410;-64
2022/05/03 04:20:16;;;;;;;9.97;8.83;;;9.60;99.90;;;;;;5094780;28;20422;-68
2022/05/03 04:22:42;;;;;;;15.30;8.60;;;9.60;99.90;;;;;;5113732;28;20313;-69
2022/05/03 04:25:08;;;;;;;10.60;8.23;;;9.70;99.90;;;;;;5113846;28;20175;-63
2022/05/03 04:27:34;;;;;;;11.80;8.80;;;9.70;99.90;;;;;;5113866;28;20200;-63
2022/05/03 04:30:01;;;;;;;16.53;9.23;;;9.70;99.90;;;;;;5112929;28;20947;-63
2022/05/03 04:32:30;;;;;;;12.80;9.30;;;9.80;99.90;;;;;;5113927;28;20629;-67
2022/05/03 04:34:57;;;;;;;12.83;8.80;;;9.80;99.90;;;;;;5095521;28;20414;-68
2022/05/03 04:37:22;;;;;;;11.77;9.13;;;9.80;99.90;;;;;;5113909;28;20487;-63
2022/05/03 04:39:48;;;;;;;14.30;9.03;;;9.80;99.90;;;;;;5113044;28;20887;-63
2022/05/03 04:42:13;;;;;;;13.37;9.57;;;9.90;99.90;;;;;;5113323;28;20234;-63
2022/05/03 04:44:39;;;;;;;12.10;8.90;;;9.90;99.90;;;;;;5113828;28;20629;-68
2022/05/03 04:47:05;;;;;;;17.20;9.40;;;9.80;99.90;;;;;;5113706;28;20657;-63
2022/05/03 04:49:31;;;;;;;14.10;9.10;;;9.80;99.90;;;;;;5116572;28;20179;-63
2022/05/03 04:51:57;;;;;;;14.47;9.90;;;9.80;99.90;;;;;;5117934;28;20418;-68
2022/05/03 04:54:23;;;;;;;17.13;11.00;;;9.70;99.90;;;;;;5117857;28;20165;-63
2022/05/03 04:57:02;;;;;;;17.50;10.53;;;9.70;99.90;;;;;;5118014;28;20172;-68
2022/05/03 04:59:28;;;;;;;14.30;11.00;;;9.80;99.90;;;;;;5116493;28;20416;-63
2022/05/03 05:01:54;;;;;;;24.53;10.30;;;9.80;99.90;;;;;;5117638;28;20509;-63
2022/05/03 05:04:20;;;;;;;18.93;9.87;;;9.90;99.90;;;;;;5117687;28;20230;-68
2022/05/03 05:06:45;;;;;;;18.60;10.00;;;9.90;99.90;;;;;;5117639;28;20197;-63
2022/05/03 05:09:11;;;;;;;11.57;9.10;;;9.90;99.90;;;;;;5116862;28;20164;-67
2022/05/03 05:11:37;;;;;;;16.60;9.23;;;10.00;99.90;;;;;;5117664;28;20186;-63
2022/05/03 05:14:02;;;;;;;11.70;8.00;;;10.00;99.90;;;;;;5117597;28;20510;-68
2022/05/03 05:16:28;;;;;;;20.77;9.00;;;10.00;99.90;;;;;;5117365;28;20237;-65
2022/05/03 05:18:54;;;;;;;9.20;7.67;;;10.00;99.90;;;;;;5116277;28;20176;-63
2022/05/03 05:21:19;;;;;;;11.10;7.53;;;10.00;99.90;;;;;;5117549;28;20172;-68
2022/05/03 05:23:45;;;;;;;10.20;6.40;;;10.00;99.90;;;;;;5117281;28;20646;-68
2022/05/03 05:26:11;;;;;;;10.93;7.70;;;10.00;99.90;;;;;;5117340;28;20200;-63
2022/05/03 05:28:37;;;;;;;9.80;7.87;;;10.00;99.90;;;;;;5116423;28;20165;-68
2022/05/03 05:31:02;;;;;;;12.43;7.77;;;10.00;99.90;;;;;;5117137;28;20920;-68
2022/05/03 05:33:28;;;;;;;11.17;6.80;;;10.10;99.90;;;;;;5117282;28;20185;-68
2022/05/03 05:35:54;;;;;;;9.37;6.63;;;10.10;99.90;;;;;;5117232;28;20652;-68
2022/05/03 05:38:20;;;;;;;8.47;6.67;;;10.20;99.90;;;;;;5116654;28;20165;-64
2022/05/03 05:40:47;;;;;;;8.10;7.07;;;10.30;99.90;;;;;;5116080;28;20249;-66
2022/05/03 05:43:16;;;;;;;9.50;6.50;;;10.30;99.90;;;;;;5098607;28;20856;-67
2022/05/03 05:45:42;;;;;;;5.43;4.60;;;10.30;99.90;;;;;;5117075;28;20415;-66
2022/05/03 05:48:13;;;;;;;8.83;4.80;;;10.30;99.90;;;;;;5098550;28;20454;-67
2022/05/03 05:50:39;;;;;;;6.77;4.53;;;10.30;99.90;;;;;;5115915;28;20403;-63
2022/05/03 05:55:49;;;;;;;10.60;4.17;;;10.30;99.90;;;;;;5116411;28;20447;-62
2022/05/03 05:58:15;;;;;;;12.97;4.97;;;10.20;99.90;;;;;;5116611;28;20873;-62
2022/05/03 06:00:40;;;;;;;4.87;3.70;;;10.20;99.90;;;;;;5115492;28;20402;-66
2022/05/03 06:03:07;;;;;;;12.60;3.97;;;10.20;99.90;;;;;;5116409;28;20275;-66
2022/05/03 06:05:32;;;;;;;5.63;3.43;;;10.20;99.90;;;;;;5116672;28;20194;-67
2022/05/03 06:07:58;;;;;;;7.23;3.40;;;10.20;99.90;;;;;;5116465;28;20453;-67
2022/05/03 06:10:24;;;;;;;5.47;4.10;;;10.30;99.90;;;;;;5115472;28;20165;-67
2022/05/03 06:12:50;;;;;;;8.27;5.00;;;10.30;99.90;;;;;;5115862;28;20193;-62
2022/05/03 06:15:19;;;;;;;3.90;3.40;;;10.30;99.90;;;;;;5116355;28;20399;-66
2022/05/03 06:17:45;;;;;;;6.23;3.57;;;10.30;99.90;;;;;;5116395;28;20515;-62
2022/05/03 06:20:11;;;;;;;8.27;4.33;;;10.30;99.90;;;;;;5115440;28;20497;-62
2022/05/03 06:22:39;;;;;;;6.50;4.40;;;10.30;99.90;;;;;;5116186;28;20966;-62
2022/05/03 06:25:06;;;;;;;8.47;4.13;;;10.30;99.90;;;;;;5116005;28;20625;-66
2022/05/03 06:27:32;;;;;;;9.27;4.87;;;10.30;99.90;;;;;;5097884;28;20454;-62
2022/05/03 06:29:57;;;;;;;5.10;4.10;;;10.30;99.90;;;;;;5114848;28;20425;-62
2022/05/03 06:32:23;;;;;;;10.67;5.10;;;10.40;99.90;;;;;;5116087;28;20192;-67
2022/05/03 06:34:48;;;;;;;6.27;3.57;;;10.30;99.90;;;;;;5116242;28;20526;-63
2022/05/03 06:37:17;;;;;;;11.33;4.37;;;10.30;99.90;;;;;;5115812;28;20176;-67
2022/05/03 06:39:43;;;;;;;9.63;4.17;;;10.50;99.90;;;;;;5115091;28;20165;-63
2022/05/03 06:42:09;;;;;;;4.10;3.40;;;10.60;99.90;;;;;;5115957;28;20504;-68
2022/05/03 06:44:35;;;;;;;5.90;3.57;;;10.60;99.90;;;;;;5115978;28;20173;-62
2022/05/03 06:47:00;;;;;;;5.90;4.20;;;10.70;99.90;;;;;;5096960;28;20453;-63
2022/05/03 06:49:26;;;;;;;4.53;3.43;;;10.90;99.90;;;;;;5114815;28;20526;-68
2022/05/03 06:51:52;;;;;;;4.73;3.50;;;11.00;99.90;;;;;;5115737;28;20224;-68
2022/05/03 06:54:17;;;;;;;11.80;3.90;;;11.10;99.90;;;;;;5115585;28;20200;-63
2022/05/03 06:56:43;;;;;;;4.03;3.23;;;11.10;99.90;;;;;;5115502;28;20169;-63
2022/05/03 06:59:09;;;;;;;9.90;4.00;;;11.00;99.90;;;;;;5114637;28;20208;-63
2022/05/03 07:01:37;;;;;;;6.53;4.13;;;10.90;99.90;;;;;;5115384;28;20533;-68
2022/05/03 07:04:03;;;;;;;5.20;4.40;;;10.80;99.90;;;;;;5115432;28;20806;-69
2022/05/03 07:06:29;;;;;;;6.33;3.73;;;11.00;99.90;;;;;;5115069;28;20420;-68
2022/05/03 07:08:54;;;;;;;4.40;3.50;;;11.00;99.90;;;;;;5114537;28;20251;-63
2022/05/03 07:11:20;;;;;;;7.83;3.30;;;11.00;99.90;;;;;;5114487;28;20165;-63
2022/05/03 07:13:48;;;;;;;5.40;3.97;;;11.10;99.90;;;;;;5097194;28;20188;-68
2022/05/03 07:16:13;;;;;;;10.13;3.57;;;11.20;99.90;;;;;;5115176;28;20192;-68
2022/05/03 07:24:07;;;;;;;5.07;3.90;;;11.50;99.90;;;;;;5115264;28;20470;-71
2022/05/03 07:26:33;;;;;;;7.03;3.57;;;11.60;99.90;;;;;;5114989;28;20422;-66
2022/05/03 07:28:59;;;;;;;12.50;3.33;;;11.70;99.90;;;;;;5114101;28;20960;-65
2022/05/03 07:31:24;;;;;;;5.87;3.50;;;11.50;99.90;;;;;;5115023;28;20169;-75
2022/05/03 07:33:50;;;;;;;8.87;3.10;;;11.50;99.90;;;;;;5114691;28;20224;-73
2022/05/03 07:36:19;;;;;;;4.13;2.93;;;11.40;99.90;;;;;;5115265;28;20526;-65
2022/05/03 07:38:46;;;;;;;4.47;3.10;;;11.30;99.90;;;;;;5114185;28;20222;-72
2022/05/03 07:41:12;;;;;;;3.17;2.50;;;11.20;99.90;;;;;;5114326;28;20433;-72
2022/05/03 07:43:37;;;;;;;6.67;3.33;;;11.10;99.90;;;;;;5114685;28;20497;-65
2022/05/03 07:46:03;;;;;;;3.07;2.77;;;11.20;99.90;;;;;;5114671;28;20537;-71
2022/05/03 07:48:29;;;;;;;10.17;3.63;;;11.30;99.90;;;;;;5114157;28;20531;-72
2022/05/03 07:50:55;;;;;;;4.63;3.23;;;11.30;98.80;;;;;;5114408;28;20454;-65
2022/05/03 07:53:21;;;;;;;6.60;2.40;;;11.30;93.50;;;;;;5113479;28;20465;-63
2022/05/03 07:55:48;;;;;;;8.67;3.63;;;11.40;92.60;;;;;;5114221;28;20169;-68
2022/05/03 07:58:14;;;;;;;8.30;3.37;;;11.40;92.50;;;;;;5114312;28;20204;-68
2022/05/03 08:00:40;;;;;;;5.80;2.43;;;11.40;92.50;;;;;;5113082;28;20418;-64
2022/05/03 08:03:06;;;;;;;6.63;3.47;;;11.40;92.50;;;;;;5114236;28;20390;-63
2022/05/03 08:05:32;;;;;;;5.60;3.20;;;11.40;92.50;;;;;;5114354;28;20165;-64
2022/05/03 08:07:57;;;;;;;9.73;2.77;;;11.40;92.60;;;;;;5114016;28;20273;-68
2022/05/03 08:10:23;;;;;;;9.00;3.40;;;11.50;92.60;;;;;;5113314;28;20187;-69
2022/05/03 08:12:52;;;;;;;8.00;3.73;;;11.40;92.50;;;;;;5114223;28;20247;-68
2022/05/03 08:15:19;;;;;;;4.97;2.40;;;11.30;92.50;;;;;;5113887;28;20157;-67
2022/05/03 08:17:45;;;;;;;5.67;2.67;;;11.40;92.50;;;;;;5113881;28;20379;-65
2022/05/03 08:20:13;;;;;;;4.00;2.47;;;11.50;92.60;;;;;;5113147;28;20918;-63
2022/05/03 08:22:39;;;;;;;8.10;3.10;;;11.80;92.60;;;;;;5113997;28;20649;-62
2022/05/03 08:25:05;;;;;;;9.77;3.13;;;11.80;87.10;;;;;;5113961;28;20399;-68
2022/05/03 08:27:31;;;;;;;11.63;2.40;;;11.90;88.90;;;;;;5113836;28;20454;-62
2022/05/03 08:29:56;;;;;;;8.80;3.13;;;12.10;86.90;;;;;;5112907;28;20455;-63
2022/05/03 08:32:22;;;;;;;7.87;3.27;;;12.30;85.40;;;;;;5113735;28;20190;-68
2022/05/03 08:34:48;;;;;;;7.77;3.13;;;12.50;87.90;;;;;;5113564;28;20255;-63
2022/05/03 08:42:42;;;;;;;4.50;2.60;;;12.50;74.20;;;;;;5113954;28;20768;-62
2022/05/03 08:45:09;;;;;;;4.57;3.00;;;12.70;74.60;;;;;;5114102;28;20395;-68
2022/05/03 08:47:37;;;;;;;4.77;3.23;;;12.80;73.60;;;;;;5113749;28;20489;-68
2022/05/03 08:50:08;;;;;;;5.27;3.03;;;12.90;71.90;;;;;;5112857;28;20398;-68
2022/05/03 08:52:49;;;;;;;5.57;2.30;;;13.20;74.90;;;;;;5113174;28;20446;-62
2022/05/03 08:55:15;;;;;;;6.23;3.17;;;13.60;77.50;;;;;;5113911;28;20948;-63
2022/05/03 08:57:45;;;;;;;6.97;2.60;;;13.80;68.40;;;;;;5113657;28;20502;-69
2022/05/03 09:00:13;;;;;;;3.87;2.47;;;13.60;63.60;;;;;;5112792;28;20375;-64
2022/05/03 09:02:43;;;;;;;6.30;2.40;;;13.60;61.70;;;;;;5113742;28;20393;-68
2022/05/03 09:05:11;;;;;;;7.73;3.03;;;13.70;61.50;;;;;;5113745;28;20399;-68
2022/05/03 09:07:37;;;;;;;7.53;2.93;;;13.40;50.10;;;;;;5113531;28;20966;-63
2022/05/03 09:10:22;;;;;;;6.60;3.70;;;13.50;51.50;;;;;;5112368;28;20365;-69
2022/05/03 09:12:49;;;;;;;6.00;2.97;;;13.70;49.70;;;;;;5113621;28;20187;-69
2022/05/03 09:15:27;;;;;;;12.97;3.07;;;13.70;45.00;;;;;;5113632;28;20462;-63
2022/05/03 09:17:52;;;;;;;6.80;3.30;;;13.60;32.00;;;;;;5113395;28;20403;-69
2022/05/03 09:26:13;;;;;;;4.90;2.83;;;14.30;32.30;;;;;;5113608;28;20975;-63
2022/05/03 09:28:55;;;;;;;5.93;2.80;;;14.50;26.10;;;;;;5111986;28;20772;-69
2022/05/03 09:31:39;;;;;;;6.93;3.17;;;14.60;25.10;;;;;;5113468;28;20381;-69
2022/05/03 09:34:25;;;;;;;5.37;2.60;;;15.00;29.30;;;;;;5114329;28;20409;-62
2022/05/03 09:36:52;;;;;;;5.37;2.50;;;15.50;30.60;;;;;;5117330;28;20972;-72
2022/05/03 09:39:26;;;;;;;5.93;3.10;;;15.90;22.80;;;;;;5116269;28;20373;-63
2022/05/03 09:42:07;;;;;;;8.50;3.33;;;16.10;23.60;;;;;;5117181;28;20429;-69
2022/05/03 09:44:37;;;;;;;7.40;2.63;;;16.10;12.90;;;;;;5117102;28;20494;-63
2022/05/03 09:47:10;;;;;;;5.43;3.20;;;16.20;12.50;;;;;;5116457;28;20450;-68
2022/05/03 09:49:42;;;;;;;12.70;3.23;;;16.50;6.20;;;;;;5116030;28;20741;-68
2022/05/03 09:52:21;;;;;;;4.23;2.23;;;16.50;4.60;;;;;;5116946;28;20388;-68
2022/05/03 09:54:51;;;;;;;10.27;3.47;;;16.90;4.90;;;;;;5098498;28;20744;-62
2022/05/03 09:57:25;;;;;;;6.83;3.13;;;16.80;1.00;;;;;;5116800;28;20757;-68
2022/05/03 09:59:52;;;;;;;9.87;2.13;;;17.30;1.00;;;;;;5116047;28;20391;-63
2022/05/03 10:02:23;;;;;;;8.60;3.63;;;17.60;1.00;;;;;;5116593;28;20473;-68
2022/05/03 10:04:50;;;;;;;6.90;2.63;;;17.80;1.00;;;;;;5116480;28;20495;-62
2022/05/03 10:07:17;;;;;;;4.33;3.00;;;18.30;1.00;;;;;;5116282;28;20477;-62
2022/05/03 10:09:45;;;;;;;7.47;3.00;;;18.60;1.00;;;;;;5097209;28;20414;-63
2022/05/03 10:12:13;;;;;;;7.13;2.40;;;18.90;1.00;;;;;;5116358;28;20433;-63
2022/05/03 10:14:40;;;;;;;5.93;2.80;;;19.30;1.00;;;;;;5116440;28;20405;-66
2022/05/03 10:20:36;;;;;;;5.60;2.87;;;19.90;1.00;;;;;;5115546;28;20767;-63
2022/05/03 10:23:04;;;;;;;7.27;3.23;;;19.90;1.00;;;;;;5115951;28;20495;-63
2022/05/03 10:25:55;;;;;;;7.67;2.50;;;20.50;1.00;;;;;;5115962;28;20399;-63
2022/05/03 10:28:22;;;;;;;7.40;2.70;;;20.70;1.00;;;;;;5116181;28;20884;-69
2022/05/03 10:31:06;;;;;;;4.83;2.87;;;20.30;1.00;;;;;;5115269;28;20435;-68
2022/05/03 10:33:31;;;;;;;7.30;3.10;;;20.00;1.00;;;;;;5116029;28;20499;-63
2022/05/03 10:35:59;;;;;;;8.50;2.67;;;20.00;1.00;;;;;;5116211;28;20842;-63
2022/05/03 10:38:39;;;;;;;6.43;2.53;;;19.80;1.00;;;;;;5115921;28;20394;-66
2022/05/03 10:41:08;;;;;;;3.87;2.23;;;19.20;1.00;;;;;;5116009;28;20425;-64
2022/05/03 10:43:36;;;;;;;3.40;1.93;;;19.10;1.00;;;;;;5115528;28;20517;-68
2022/05/03 10:46:13;;;;;;;5.00;2.57;;;19.40;1.00;;;;;;5114816;28;20482;-63
2022/05/03 10:48:44;;;;;;;5.60;2.10;;;19.60;1.00;;;;;;5115017;28;20447;-64
2022/05/03 10:51:15;;;;;;;8.23;2.30;;;20.00;1.00;;;;;;5115802;28;20416;-69
2022/05/03 10:53:42;;;;;;;6.57;3.97;;;20.20;1.00;;;;;;5115736;28;20451;-64
2022/05/03 10:56:16;;;;;;;5.67;2.13;;;20.50;1.00;;;;;;5115804;28;20387;-68
2022/05/03 10:58:45;;;;;;;12.60;2.67;;;21.00;1.00;;;;;;5114621;28;20421;-69
2022/05/03 11:01:20;;;;;;;6.10;2.37;;;20.70;1.00;;;;;;5115052;28;20739;-64
2022/05/03 11:03:48;;;;;;;6.60;2.70;;;20.50;1.00;;;;;;5115569;28;20414;-69
2022/05/03 11:06:26;;;;;;;4.23;2.10;;;20.60;1.00;;;;;;5115474;28;20398;-63
2022/05/03 11:11:49;;;;;;;4.80;2.43;;;20.20;1.00;;;;;;5115232;28;20383;-64
2022/05/03 11:14:24;;;;;;;3.70;1.93;;;20.60;1.00;;;;;;5115313;28;20529;-68
2022/05/03 11:17:03;;;;;;;10.10;3.30;;;20.90;1.00;;;;;;5115016;28;20483;-69
2022/05/03 11:19:29;;;;;;;3.13;2.20;;;21.30;1.00;;;;;;5114265;28;20789;-64
2022/05/03 11:21:58;;;;;;;10.43;2.80;;;21.60;1.00;;;;;;5115203;28;20429;-63
2022/05/03 11:24:29;;;;;;;5.30;2.57;;;22.20;1.00;;;;;;5115149;28;20391;-63
2022/05/03 11:27:01;;;;;;;3.50;2.20;;;22.30;1.00;;;;;;5114927;28;20537;-64
2022/05/03 11:29:29;;;;;;;2.93;2.13;;;22.50;1.00;;;;;;5113943;28;20402;-63
2022/05/03 11:31:55;;;;;;;8.00;2.30;;;22.70;1.00;;;;;;5115134;28;20429;-64
2022/05/03 11:34:21;;;;;;;5.40;3.03;;;22.90;1.00;;;;;;5114621;28;20394;-63
2022/05/03 11:36:50;;;;;;;5.63;2.30;;;22.90;1.00;;;;;;5115014;28;20538;-63
2022/05/03 11:39:16;;;;;;;4.60;3.20;;;22.70;1.00;;;;;;5113847;28;20445;-64
2022/05/03 11:41:43;;;;;;;5.50;2.47;;;22.50;1.00;;;;;;5114593;28;20484;-64
2022/05/03 11:44:09;;;;;;;4.00;2.40;;;22.80;1.00;;;;;;5114748;28;20395;-63
2022/05/03 11:46:40;;;;;;;5.83;2.50;;;23.10;1.00;;;;;;5114744;28;20442;-64
2022/05/03 11:49:08;;;;;;;3.23;2.10;;;23.50;1.00;;;;;;5113819;28;20452;-63
2022/05/03 11:57:14;;;;;;;6.10;2.20;;;24.20;1.00;;;;;;5114529;28;20767;-63
2022/05/03 11:59:45;;;;;;;8.43;2.20;;;24.40;1.00;;;;;;5113358;28;20910;-64
2022/05/03 12:02:17;;;;;;;5.73;2.60;;;24.50;1.00;;;;;;5114495;28;20422;-69
2022/05/03 12:05:00;;;;;;;5.47;2.13;;;25.00;1.00;;;;;;5114303;28;20906;-69
2022/05/03 12:07:26;;;;;;;5.20;1.97;;;25.00;1.00;;;;;;5114207;28;20457;-65
2022/05/03 12:09:52;;;;;;;7.03;2.10;;;25.00;1.00;;;;;;5113171;28;20419;-69
2022/05/03 12:12:43;;;;;;;4.80;2.60;;;25.00;1.00;;;;;;5113919;28;20192;-70
2022/05/03 12:15:24;;;;;;;3.63;2.57;;;25.40;1.00;;;;;;5114184;28;20169;-70
2022/05/03 12:18:02;;;;;;;3.90;1.90;;;25.50;1.00;;;;;;5114095;28;20409;-69
2022/05/03 12:20:46;;;;;;;4.20;1.80;;;25.20;1.00;;;;;;5113276;28;20398;-64
2022/05/03 12:23:23;;;;;;;3.20;2.10;;;25.00;1.00;;;;;;5113981;28;20957;-65
2022/05/03 12:25:55;;;;;;;6.03;1.70;;;25.50;1.00;;;;;;5095632;28;20511;-68
2022/05/03 12:28:34;;;;;;;6.10;1.67;;;25.50;1.00;;;;;;5095497;28;20962;-67
2022/05/03 12:31:02;;;;;;;5.60;2.17;;;25.50;1.00;;;;;;5113800;28;20413;-69
2022/05/03 12:33:28;;;;;;;6.97;2.23;;;25.20;1.00;;;;;;5113802;28;20426;-70
2022/05/03 12:35:54;;;;;;;8.03;1.93;;;24.80;1.00;;;;;;5113723;28;20414;-69
2022/05/03 12:38:23;;;;;;;8.20;2.03;;;24.10;1.00;;;;;;5114276;28;20226;-69
2022/05/03 12:40:53;;;;;;;5.07;2.17;;;23.20;1.00;;;;;;5113124;28;20179;-70
2022/05/03 12:43:23;;;;;;;6.00;2.50;;;22.60;1.00;;;;;;5114046;28;20410;-69
2022/05/03 12:46:06;;;;;;;4.03;1.67;;;22.70;1.00;;;;;;5113653;28;20407;-66
2022/05/03 12:48:36;;;;;;;12.93;2.37;;;22.90;1.00;;;;;;5112938;28;20414;-70
2022/05/03 12:51:04;;;;;;;7.23;1.87;;;23.10;1.00;;;;;;5113836;28;20410;-67
2022/05/03 12:53:32;;;;;;;6.67;1.93;;;22.30;1.00;;;;;;5113765;28;20938;-63
2022/05/03 12:58:44;;;;;;;3.97;1.77;;;21.50;1.00;;;;;;5112880;28;20445;-64
2022/05/03 13:01:11;;;;;;;5.43;1.87;;;21.30;1.00;;;;;;5113697;28;20431;-63
2022/05/03 13:03:38;;;;;;;8.20;2.40;;;21.30;1.00;;;;;;5113656;28;20952;-64
2022/05/03 13:06:04;;;;;;;7.17;2.40;;;21.40;1.00;;;;;;5113067;28;20410;-66
2022/05/03 13:08:30;;;;;;;4.40;2.40;;;21.80;1.00;;;;;;5113064;28;20906;-70
2022/05/03 13:10:57;;;;;;;13.10;3.03;;;22.10;1.00;;;;;;5117845;28;20410;-63
2022/05/03 13:13:24;;;;;;;7.43;3.23;;;21.70;1.00;;;;;;5117590;28;20426;-69
2022/05/03 13:15:51;;;;;;;4.97;2.40;;;21.50;1.00;;;;;;5117804;28;20801;-69
2022/05/03 13:18:17;;;;;;;5.57;2.83;;;21.60;1.00;;;;;;5117476;28;20407;-64
2022/05/03 13:20:43;;;;;;;5.23;2.90;;;21.40;1.00;;;;;;5116582;28;20459;-64
2022/05/03 13:23:13;;;;;;;2.83;2.27;;;21.60;1.00;;;;;;5117527;28;20195;-63
2022/05/03 13:25:39;;;;;;;13.97;2.57;;;21.90;1.00;;;;;;5117121;28;20403;-63
2022/05/03 13:28:06;;;;;;;6.27;2.43;;;22.60;1.00;;;;;;5117259;28;20450;-64
2022/05/03 13:30:32;;;;;;;5.40;2.07;;;23.60;1.00;;;;;;5098198;28;20567;-69
2022/05/03 13:32:58;;;;;;;8.63;2.60;;;24.60;1.00;;;;;;5117364;28;20430;-63
2022/05/03 13:40:55;;;;;;;6.90;2.20;;;26.80;1.00;;;;;;5116905;28;20963;-64
2022/05/03 13:43:22;;;;;;;12.47;2.90;;;27.20;1.00;;;;;;5098505;28;20799;-67
2022/05/03 13:45:48;;;;;;;4.20;1.80;;;26.70;1.00;;;;;;5098727;28;20760;-64
2022/05/03 13:48:13;;;;;;;3.40;1.97;;;27.40;1.00;;;;;;5117038;28;20454;-64
2022/05/03 13:50:40;;;;;;;4.27;1.90;;;28.60;1.00;;;;;;5116013;28;20180;-64